createdAt,value
2018-04-28T00:00:54.998Z,66.90
2018-04-28T00:03:21.411Z,66.90
2018-04-28T00:05:47.919Z,67.00
2018-04-28T00:08:23.110Z,67.60
2018-04-28T00:10:49.621Z,67.90
2018-04-28T00:13:16.005Z,68.00
2018-04-28T00:15:42.458Z,68.60
2018-04-28T00:18:08.889Z,68.10
2018-04-28T00:20:35.301Z,68.40
2018-04-28T00:23:03.437Z,68.90
2018-04-28T00:25:29.837Z,68.80
2018-04-28T00:30:58.289Z,69.60
2018-04-28T00:33:27.307Z,71.10
2018-04-28T00:38:56.147Z,72.20
2018-04-28T00:41:22.552Z,72.20
2018-04-28T00:43:49.000Z,72.30
2018-04-28T00:46:22.299Z,72.50
2018-04-28T00:48:54.828Z,72.30
2018-04-28T00:51:27.959Z,72.50
2018-04-28T00:56:49.971Z,72.50
2018-04-28T00:59:17.404Z,72.20
2018-04-28T01:01:43.825Z,72.70
2018-04-28T01:04:17.161Z,72.80
2018-04-28T01:06:44.338Z,73.20
2018-04-28T01:09:13.333Z,73.50
2018-04-28T01:11:42.809Z,73.40
2018-04-28T01:14:10.063Z,74.10
2018-04-28T01:16:39.586Z,74.10
2018-04-28T01:19:13.915Z,74.20
2018-04-28T01:21:41.921Z,75.50
2018-04-28T01:24:18.509Z,75.50
2018-04-28T01:26:44.952Z,75.70
2018-04-28T01:29:23.128Z,76.40
2018-04-28T01:31:54.536Z,77.30
2018-04-28T01:34:27.820Z,78.10
2018-04-28T01:37:06.099Z,78.90
2018-04-28T01:39:34.352Z,79.20
2018-04-28T01:42:16.186Z,79.80
2018-04-28T01:44:48.816Z,80.80
2018-04-28T01:50:19.623Z,82.20
2018-04-28T01:52:47.073Z,82.50
2018-04-28T01:55:30.924Z,83.00
2018-04-28T01:58:03.502Z,83.60
2018-04-28T02:03:24.121Z,84.20
2018-04-28T02:05:54.549Z,85.20
2018-04-28T02:08:21.990Z,85.80
2018-04-28T02:10:53.459Z,85.70
2018-04-28T02:16:19.703Z,86.40
2018-04-28T02:18:58.044Z,86.70
2018-04-28T02:21:28.327Z,86.60
2018-04-28T02:26:56.034Z,87.70
2018-04-28T02:29:25.337Z,87.20
2018-04-28T02:31:54.636Z,89.00
2018-04-28T02:34:23.120Z,88.90
2018-04-28T02:36:53.547Z,90.10
2018-04-28T02:39:25.915Z,90.40
2018-04-28T02:42:09.231Z,90.40
2018-04-28T02:44:39.781Z,90.70
2018-04-28T02:47:07.435Z,90.60
2018-04-28T02:49:43.074Z,90.90
2018-04-28T02:52:12.421Z,90.90
2018-04-28T02:54:49.071Z,91.10
2018-04-28T02:57:16.631Z,91.00
2018-04-28T02:59:44.197Z,90.90
2018-04-28T03:02:29.062Z,91.40
2018-04-28T03:05:14.744Z,91.40
2018-04-28T03:07:48.954Z,91.40
2018-04-28T03:10:22.157Z,91.70
2018-04-28T03:12:49.465Z,91.80
2018-04-28T03:15:16.318Z,91.80
2018-04-28T03:17:46.271Z,91.90
2018-04-28T03:20:15.659Z,92.00
2018-04-28T03:22:43.165Z,92.00
2018-04-28T03:25:18.900Z,92.30
2018-04-28T03:27:58.015Z,91.90
2018-04-28T03:30:25.479Z,91.80
2018-04-28T03:32:56.076Z,91.80
2018-04-28T03:35:23.778Z,91.80
2018-04-28T03:40:56.885Z,92.00
2018-04-28T03:43:33.461Z,91.70
2018-04-28T03:46:19.103Z,91.90
2018-04-28T03:49:11.891Z,91.60
2018-04-28T03:51:46.289Z,91.90
2018-04-28T03:54:29.140Z,91.90
2018-04-28T03:57:05.791Z,92.20
2018-04-28T03:59:55.997Z,92.50
2018-04-28T04:02:47.316Z,92.50
2018-04-28T04:05:19.789Z,92.70
2018-04-28T04:10:57.317Z,92.50
2018-04-28T04:13:36.846Z,92.80
2018-04-28T04:16:16.699Z,93.20
2018-04-28T04:21:46.122Z,93.50
2018-04-28T04:24:19.574Z,93.90
2018-04-28T04:26:58.528Z,93.70
2018-04-28T04:32:32.993Z,93.40
2018-04-28T04:35:25.648Z,93.60
2018-04-28T04:38:04.781Z,93.50
2018-04-28T04:40:33.255Z,93.40
2018-04-28T04:43:05.532Z,93.50
2018-04-28T04:48:56.251Z,93.90
2018-04-28T04:54:40.529Z,93.50
2018-04-28T04:57:24.147Z,93.30
2018-04-28T05:03:19.190Z,93.10
2018-04-28T05:09:15.854Z,92.60
2018-04-28T05:12:16.286Z,92.50
2018-04-28T05:14:56.025Z,92.10
2018-04-28T05:17:36.292Z,92.00
2018-04-28T05:20:16.038Z,92.30
2018-04-28T05:22:55.171Z,92.30
2018-04-28T05:25:35.308Z,92.70
2018-04-28T05:28:09.983Z,92.30
2018-04-28T05:30:48.573Z,92.30
2018-04-28T05:33:29.137Z,92.50
2018-04-28T05:39:19.968Z,91.90
2018-04-28T05:42:07.504Z,91.90
2018-04-28T05:44:57.993Z,92.10
2018-04-28T05:47:44.703Z,91.50
2018-04-28T05:53:22.629Z,90.70
2018-04-28T05:56:00.800Z,90.50
2018-04-28T05:58:29.324Z,90.50
2018-04-28T06:03:56.899Z,89.90
2018-04-28T06:06:44.110Z,89.70
2018-04-28T06:12:17.957Z,89.40
2018-04-28T06:15:09.580Z,89.80
2018-04-28T06:17:49.328Z,88.70
2018-04-28T06:20:28.342Z,87.80
2018-04-28T06:22:54.972Z,86.50
2018-04-28T06:25:21.635Z,86.30
2018-04-28T06:27:48.380Z,85.80
2018-04-28T06:30:15.119Z,83.20
2018-04-28T06:32:41.960Z,81.70
2018-04-28T06:35:09.256Z,76.90
2018-04-28T06:37:35.957Z,76.90
2018-04-28T06:40:03.618Z,78.20
2018-04-28T06:42:31.385Z,76.70
2018-04-28T06:44:58.348Z,76.70
2018-04-28T06:47:25.776Z,72.90
2018-04-28T06:49:52.587Z,72.80
2018-04-28T06:52:19.272Z,74.50
2018-04-28T06:54:45.856Z,71.40
2018-04-28T06:57:12.755Z,68.70
2018-04-28T06:59:39.605Z,65.80
2018-04-28T07:02:06.319Z,65.60
2018-04-28T07:04:33.168Z,65.90
2018-04-28T07:07:00.745Z,66.90
2018-04-28T07:09:28.034Z,67.90
2018-04-28T07:11:54.943Z,67.90
2018-04-28T07:14:21.725Z,67.90
2018-04-28T07:16:48.638Z,68.00
2018-04-28T07:19:16.193Z,67.80
2018-04-28T07:21:43.069Z,67.80
2018-04-28T07:24:09.774Z,68.80
2018-04-28T07:26:36.531Z,71.70
2018-04-28T07:29:03.370Z,75.40
2018-04-28T07:31:30.085Z,75.80
2018-04-28T07:33:56.828Z,75.30
2018-04-28T07:36:23.468Z,76.70
2018-04-28T07:38:50.108Z,77.20
2018-04-28T07:41:16.973Z,77.90
2018-04-28T07:43:43.565Z,79.60
2018-04-28T07:46:10.229Z,79.00
2018-04-28T07:48:36.876Z,78.30
2018-04-28T07:51:03.528Z,75.80
2018-04-28T07:53:30.267Z,75.30
2018-04-28T07:55:56.909Z,75.90
2018-04-28T07:58:28.151Z,76.90
2018-04-28T08:00:54.790Z,77.00
2018-04-28T08:03:21.411Z,76.60
2018-04-28T08:05:48.068Z,71.20
2018-04-28T08:08:14.707Z,67.10
2018-04-28T08:10:41.345Z,61.10
2018-04-28T08:13:08.674Z,59.70
2018-04-28T08:15:35.344Z,59.70
2018-04-28T08:18:19.697Z,58.40
2018-04-28T08:20:52.478Z,55.50
2018-04-28T08:23:25.262Z,54.80
2018-04-28T08:26:11.458Z,58.30
2018-04-28T08:28:58.331Z,57.70
2018-04-28T08:31:39.943Z,59.10
2018-04-28T08:34:12.744Z,58.00
2018-04-28T08:36:59.341Z,56.10
2018-04-28T08:39:31.928Z,56.30
2018-04-28T08:42:05.640Z,55.50
2018-04-28T08:44:38.567Z,55.50
2018-04-28T08:47:11.304Z,54.60
2018-04-28T08:49:44.295Z,54.50
2018-04-28T08:52:17.294Z,56.10
2018-04-28T08:54:50.890Z,57.10
2018-04-28T08:57:23.666Z,57.10
2018-04-28T09:00:09.257Z,56.00
2018-04-28T09:02:41.812Z,54.50
2018-04-28T09:05:14.514Z,53.80
2018-04-28T09:07:47.391Z,53.20
2018-04-28T09:10:20.492Z,54.40
2018-04-28T09:12:53.379Z,55.10
2018-04-28T09:15:26.153Z,54.60
2018-04-28T09:17:58.825Z,54.70
2018-04-28T09:20:31.470Z,54.00
2018-04-28T09:23:04.103Z,54.50
2018-04-28T09:25:38.926Z,56.20
2018-04-28T09:28:11.682Z,53.50
2018-04-28T09:30:44.610Z,55.10
2018-04-28T09:33:17.584Z,51.10
2018-04-28T09:35:51.081Z,47.90
2018-04-28T09:38:23.871Z,47.80
2018-04-28T09:40:56.675Z,43.70
2018-04-28T09:43:29.533Z,44.70
2018-04-28T09:46:02.092Z,43.50
2018-04-28T09:48:34.576Z,43.60
2018-04-28T09:51:07.277Z,43.50
2018-04-28T09:53:40.053Z,43.90
2018-04-28T09:56:12.921Z,44.40
2018-04-28T09:58:45.584Z,43.70
2018-04-28T10:01:20.150Z,46.90
2018-04-28T10:03:53.747Z,47.30
2018-04-28T10:06:28.162Z,45.80
2018-04-28T10:09:01.054Z,45.90
2018-04-28T10:11:33.822Z,46.40
2018-04-28T10:14:06.758Z,46.90
2018-04-28T10:16:39.608Z,47.60
2018-04-28T10:19:12.268Z,49.20
2018-04-28T10:21:45.274Z,48.00
2018-04-28T10:24:18.262Z,48.70
2018-04-28T10:26:51.236Z,45.80
2018-04-28T10:29:24.351Z,49.80
2018-04-28T10:31:57.148Z,46.30
2018-04-28T10:34:29.913Z,44.90
2018-04-28T10:37:02.790Z,44.60
2018-04-28T10:39:35.676Z,45.50
2018-04-28T10:42:09.168Z,42.00
2018-04-28T10:44:43.702Z,43.70
2018-04-28T10:47:16.595Z,43.60
2018-04-28T10:49:50.085Z,38.50
2018-04-28T10:52:24.102Z,39.50
2018-04-28T10:54:58.425Z,39.00
2018-04-28T10:57:31.237Z,39.00
2018-04-28T11:00:04.308Z,40.30
2018-04-28T11:02:37.256Z,39.10
2018-04-28T11:05:10.676Z,40.20
2018-04-28T11:07:43.664Z,39.60
2018-04-28T11:10:16.753Z,37.50
2018-04-28T11:12:49.540Z,42.40
2018-04-28T11:15:22.298Z,40.90
2018-04-28T11:17:55.206Z,39.10
2018-04-28T11:20:27.882Z,40.90
2018-04-28T11:23:00.451Z,35.20
2018-04-28T11:25:34.037Z,35.30
2018-04-28T11:28:06.744Z,34.70
2018-04-28T11:30:39.403Z,36.70
2018-04-28T11:33:12.112Z,36.80
2018-04-28T11:35:45.137Z,39.40
2018-04-28T11:38:17.979Z,38.70
2018-04-28T11:40:50.749Z,37.50
2018-04-28T11:43:23.497Z,33.70
2018-04-28T11:46:00.640Z,34.70
2018-04-28T11:48:33.295Z,34.60
2018-04-28T11:51:06.896Z,34.10
2018-04-28T11:53:39.685Z,33.50
2018-04-28T11:56:12.353Z,33.00
2018-04-28T11:58:45.984Z,34.70
2018-04-28T12:01:18.676Z,34.70
2018-04-28T12:03:51.444Z,33.00
2018-04-28T12:06:29.040Z,33.70
2018-04-28T12:08:56.278Z,33.40
2018-04-28T12:11:30.616Z,34.20
2018-04-28T12:13:58.071Z,34.60
2018-04-28T12:16:25.425Z,33.10
2018-04-28T12:18:52.679Z,34.80
2018-04-28T12:21:19.301Z,34.80
2018-04-28T12:23:51.997Z,36.30
2018-04-28T12:26:24.765Z,35.60
2018-04-28T12:28:57.552Z,36.90
2018-04-28T12:31:30.112Z,35.50
2018-04-28T12:34:02.932Z,34.10
2018-04-28T12:36:35.595Z,30.70
2018-04-28T12:39:08.288Z,32.40
2018-04-28T12:41:40.922Z,34.40
2018-04-28T12:44:13.859Z,34.20
2018-04-28T12:46:46.528Z,35.80
2018-04-28T12:49:19.237Z,36.80
2018-04-28T12:51:51.996Z,35.00
2018-04-28T12:54:24.827Z,34.00
2018-04-28T12:56:57.561Z,37.10
2018-04-28T12:59:30.448Z,36.20
2018-04-28T13:02:03.949Z,35.60
2018-04-28T13:04:36.730Z,35.60
2018-04-28T13:07:09.499Z,35.50
2018-04-28T13:09:42.178Z,33.70
2018-04-28T13:12:14.852Z,35.60
2018-04-28T13:14:47.672Z,36.00
2018-04-28T13:17:20.598Z,36.00
2018-04-28T13:19:54.254Z,36.90
2018-04-28T13:22:26.705Z,36.90
2018-04-28T13:24:59.372Z,35.60
2018-04-28T13:27:32.183Z,35.80
2018-04-28T13:30:05.776Z,33.80
2018-04-28T13:32:38.587Z,33.80
2018-04-28T13:35:11.344Z,37.40
2018-04-28T13:37:44.149Z,38.00
2018-04-28T13:40:16.697Z,35.40
2018-04-28T13:42:49.479Z,32.80
2018-04-28T13:45:22.290Z,31.60
2018-04-28T13:47:55.069Z,34.20
2018-04-28T13:50:27.638Z,36.40
2018-04-28T13:53:00.526Z,36.90
2018-04-28T13:55:27.889Z,35.50
2018-04-28T13:58:00.540Z,35.40
2018-04-28T14:00:33.217Z,32.50
2018-04-28T14:03:06.023Z,33.70
2018-04-28T14:05:38.708Z,32.80
2018-04-28T14:08:11.374Z,34.30
2018-04-28T14:10:44.147Z,35.30
2018-04-28T14:13:16.730Z,35.60
2018-04-28T14:15:49.542Z,32.30
2018-04-28T14:18:22.110Z,30.90
2018-04-28T14:20:54.772Z,31.90
2018-04-28T14:23:27.480Z,36.10
2018-04-28T14:26:00.259Z,36.30
2018-04-28T14:28:32.817Z,36.30
2018-04-28T14:31:05.617Z,36.60
2018-04-28T14:33:32.971Z,35.30
2018-04-28T14:36:07.351Z,36.20
2018-04-28T14:38:33.910Z,36.20
2018-04-28T14:41:00.373Z,34.60
2018-04-28T14:43:27.618Z,34.50
2018-04-28T14:45:54.983Z,35.70
2018-04-28T14:48:22.532Z,32.30
2018-04-28T14:50:56.429Z,32.30
2018-04-28T14:53:23.181Z,33.80
2018-04-28T14:55:50.544Z,33.60
2018-04-28T14:58:17.790Z,34.10
2018-04-28T15:00:44.429Z,34.10
2018-04-28T15:06:08.837Z,33.70
2018-04-28T15:08:36.501Z,34.10
2018-04-28T15:11:03.856Z,36.60
2018-04-28T15:13:30.496Z,36.60
2018-04-28T15:15:57.241Z,35.80
2018-04-28T15:18:24.471Z,37.00
2018-04-28T15:20:51.029Z,37.60
2018-04-28T15:23:17.676Z,38.90
2018-04-28T15:25:44.996Z,39.70
2018-04-28T15:28:11.866Z,39.70
2018-04-28T15:30:39.323Z,40.20
2018-04-28T15:33:07.705Z,36.80
2018-04-28T15:35:35.065Z,38.70
2018-04-28T15:38:02.519Z,39.60
2018-04-28T15:40:29.871Z,40.70
2018-04-28T15:42:57.316Z,40.50
2018-04-28T15:45:24.590Z,39.70
2018-04-28T15:47:51.115Z,39.70
2018-04-28T15:50:23.427Z,39.90
2018-04-28T15:52:50.045Z,39.20
2018-04-28T15:55:16.704Z,40.70
2018-04-28T15:57:43.524Z,40.20
2018-04-28T16:00:10.151Z,38.20
2018-04-28T16:02:36.791Z,40.70
2018-04-28T16:05:04.129Z,42.00
2018-04-28T16:07:32.325Z,42.00
2018-04-28T16:09:59.582Z,42.00
2018-04-28T16:12:26.313Z,41.90
2018-04-28T16:14:53.671Z,42.40
2018-04-28T16:17:20.207Z,42.40
2018-04-28T16:19:46.742Z,42.20
2018-04-28T16:22:13.279Z,42.20
2018-04-28T16:24:40.632Z,38.60
2018-04-28T16:27:07.268Z,38.50
2018-04-28T16:29:33.936Z,41.40
2018-04-28T16:32:00.467Z,42.80
2018-04-28T16:34:27.851Z,43.70
2018-04-28T16:36:54.541Z,43.70
2018-04-28T16:39:21.902Z,42.90
2018-04-28T16:41:49.253Z,43.50
2018-04-28T16:44:15.786Z,43.40
2018-04-28T16:46:42.413Z,44.60
2018-04-28T16:49:08.980Z,45.40
2018-04-28T16:51:36.011Z,46.50
2018-04-28T16:54:03.302Z,47.40
2018-04-28T16:56:29.909Z,47.00
2018-04-28T16:58:57.186Z,47.90
2018-04-28T17:01:23.918Z,47.90
2018-04-28T17:03:51.364Z,48.10
2018-04-28T17:06:18.718Z,48.20
2018-04-28T17:08:45.970Z,48.90
2018-04-28T17:11:13.429Z,49.20
2018-04-28T17:13:40.668Z,49.50
2018-04-28T17:16:07.218Z,49.40
2018-04-28T17:18:33.757Z,50.00
2018-04-28T17:21:01.208Z,51.80
2018-04-28T17:23:28.466Z,52.70
2018-04-28T17:25:55.852Z,52.20
2018-04-28T17:28:22.463Z,52.20
2018-04-28T17:30:49.806Z,54.00
2018-04-28T17:33:35.904Z,53.30
2018-04-28T17:36:02.643Z,53.50
2018-04-28T17:38:35.136Z,54.40
2018-04-28T17:41:02.587Z,54.90
2018-04-28T17:43:29.329Z,54.80
2018-04-28T17:45:56.101Z,55.10
2018-04-28T17:48:22.729Z,55.50
2018-04-28T17:50:49.636Z,55.80
2018-04-28T17:53:29.462Z,56.20
2018-04-28T17:55:56.107Z,56.40
2018-04-28T17:58:23.704Z,56.90
2018-04-28T18:00:51.079Z,56.90
2018-04-28T18:03:17.906Z,57.40
2018-04-28T18:05:44.532Z,57.90
2018-04-28T18:08:12.109Z,58.80
2018-04-28T18:10:39.098Z,58.80
2018-04-28T18:13:08.261Z,59.80
2018-04-28T18:15:36.326Z,60.30
2018-04-28T18:18:03.267Z,61.10
2018-04-28T18:20:30.218Z,60.90
2018-04-28T18:22:57.369Z,61.50
2018-04-28T18:25:24.012Z,62.00
2018-04-28T18:27:56.483Z,63.20
2018-04-28T18:30:23.833Z,63.70
2018-04-28T18:32:50.478Z,63.70
2018-04-28T18:35:18.955Z,65.00
2018-04-28T18:37:45.668Z,65.10
2018-04-28T18:40:12.664Z,65.70
2018-04-28T18:42:39.692Z,66.60
2018-04-28T18:45:07.470Z,68.30
2018-04-28T18:47:36.682Z,68.30
2018-04-28T18:50:03.704Z,69.10
2018-04-28T18:52:30.451Z,69.90
2018-04-28T18:54:59.860Z,71.40
2018-04-28T18:57:26.703Z,71.40
2018-04-28T18:59:53.344Z,72.10
2018-04-28T19:02:20.082Z,72.80
2018-04-28T19:04:47.043Z,73.60
2018-04-28T19:07:14.174Z,74.70
2018-04-28T19:09:41.427Z,76.00
2018-04-28T19:12:08.884Z,76.70
2018-04-28T19:14:36.651Z,76.70
2018-04-28T19:17:04.008Z,77.50
2018-04-28T19:19:31.427Z,78.10
2018-04-28T19:21:58.113Z,78.00
2018-04-28T19:24:25.555Z,78.70
2018-04-28T19:26:52.199Z,79.30
2018-04-28T19:29:18.941Z,80.10
2018-04-28T19:31:45.991Z,80.50
2018-04-28T19:34:12.740Z,81.20
2018-04-28T19:36:39.781Z,82.10
2018-04-28T19:39:07.028Z,83.00
2018-04-28T19:41:33.647Z,83.80
2018-04-28T19:44:00.309Z,83.90
2018-04-28T19:46:27.635Z,85.70
2018-04-28T19:48:54.908Z,85.90
2018-04-28T19:51:21.452Z,85.80
2018-04-28T19:53:48.915Z,86.40
2018-04-28T19:56:15.558Z,86.30
2018-04-28T19:58:42.917Z,87.50
2018-04-28T20:01:19.672Z,87.40
2018-04-28T20:03:46.204Z,87.90
2018-04-28T20:06:13.693Z,89.20
2018-04-28T20:08:40.424Z,89.10
2018-04-28T20:11:07.763Z,89.30
2018-04-28T20:13:34.300Z,89.30
2018-04-28T20:16:02.708Z,89.50
2018-04-28T20:18:29.957Z,90.00
2018-04-28T20:20:56.694Z,89.80
2018-04-28T20:23:35.540Z,90.00
2018-04-28T20:26:02.157Z,90.10
2018-04-28T20:28:28.794Z,90.20
2018-04-28T20:30:56.152Z,90.30
2018-04-28T20:33:23.409Z,90.40
2018-04-28T20:35:49.930Z,90.40
2018-04-28T20:38:16.459Z,90.30
2018-04-28T20:40:43.015Z,90.40
2018-04-28T20:43:10.572Z,90.70
2018-04-28T20:45:37.929Z,90.80
2018-04-28T20:48:05.181Z,90.80
2018-04-28T20:50:32.640Z,90.70
2018-04-28T20:53:00.108Z,90.70
2018-04-28T20:55:26.737Z,90.70
2018-04-28T20:57:53.376Z,90.80
2018-04-28T21:00:20.592Z,90.70
2018-04-28T21:02:47.176Z,90.70
2018-04-28T21:05:14.625Z,90.90
2018-04-28T21:07:41.186Z,90.90
2018-04-28T21:10:07.806Z,91.00
2018-04-28T21:12:35.159Z,91.10
2018-04-28T21:15:02.496Z,91.20
2018-04-28T21:17:29.152Z,91.20
2018-04-28T21:19:56.360Z,91.60
2018-04-28T21:22:23.250Z,91.60
2018-04-28T21:24:50.500Z,91.90
2018-04-28T21:27:17.750Z,92.00
2018-04-28T21:29:45.111Z,92.20
2018-04-28T21:32:11.661Z,92.10
2018-04-28T21:34:44.313Z,91.90
2018-04-28T21:37:11.535Z,92.20
2018-04-28T21:39:38.224Z,92.20
2018-04-28T21:42:05.575Z,92.60
2018-04-28T21:44:32.113Z,92.60
2018-04-28T21:46:59.367Z,92.80
2018-04-28T21:49:26.808Z,93.00
2018-04-28T21:51:53.463Z,93.00
2018-04-28T21:54:20.000Z,93.10
2018-04-28T21:56:46.537Z,93.20
2018-04-28T21:59:13.173Z,93.40
2018-04-28T22:01:39.719Z,93.30
2018-04-28T22:04:07.055Z,93.40
2018-04-28T22:06:33.810Z,93.30
2018-04-28T22:09:01.063Z,94.00
2018-04-28T22:11:28.522Z,94.50
2018-04-28T22:13:55.770Z,94.80
2018-04-28T22:16:22.274Z,94.80
2018-04-28T22:18:48.952Z,95.30
2018-04-28T22:21:16.162Z,95.00
2018-04-28T22:23:42.742Z,95.00
2018-04-28T22:26:09.944Z,95.90
2018-04-28T22:28:36.517Z,95.90
2018-04-28T22:31:03.172Z,96.70
2018-04-28T22:33:30.531Z,97.80
2018-04-28T22:35:57.064Z,97.50
2018-04-28T22:38:24.315Z,97.50
2018-04-28T22:40:51.658Z,97.50
2018-04-28T22:43:18.319Z,97.50
2018-04-28T22:45:44.957Z,97.40
2018-04-28T22:48:12.315Z,98.30
2018-04-28T22:50:39.509Z,98.30
2018-04-28T22:53:06.094Z,98.20
2018-04-28T22:55:32.631Z,98.40
2018-04-28T22:57:59.160Z,98.40
2018-04-28T23:00:25.699Z,98.30
2018-04-28T23:02:52.346Z,98.30
2018-04-28T23:05:19.600Z,98.30
2018-04-28T23:07:46.239Z,98.30
2018-04-28T23:10:12.756Z,98.30
2018-04-28T23:12:39.308Z,98.20
2018-04-28T23:15:05.773Z,98.20
2018-04-28T23:17:32.367Z,98.50
2018-04-28T23:19:59.134Z,98.30
2018-04-28T23:22:26.394Z,98.20
2018-04-28T23:24:52.915Z,98.10
2018-04-28T23:27:24.091Z,98.30
2018-04-28T23:29:50.603Z,98.10
2018-04-28T23:32:17.855Z,99.00
2018-04-28T23:34:45.103Z,98.90
2018-04-28T23:37:11.628Z,98.90
2018-04-28T23:39:38.381Z,98.70
2018-04-28T23:42:05.006Z,98.90
2018-04-28T23:44:31.548Z,99.20
2018-04-28T23:46:58.095Z,99.20
2018-04-28T23:49:25.332Z,99.20
2018-04-28T23:51:51.886Z,99.10
2018-04-28T23:54:19.137Z,99.00
2018-04-28T23:56:45.761Z,99.00
2018-04-28T23:59:12.315Z,98.90
